createdAt,value
2024-05-09T00:00:18.199Z,99292.72
2024-05-09T00:02:14.354Z,99319.31
2024-05-09T00:04:06.479Z,99322.56
2024-05-09T00:05:58.655Z,99331.66
2024-05-09T00:07:50.511Z,99284.53
2024-05-09T00:09:42.279Z,99323.19
2024-05-09T00:11:35.320Z,99327.88
2024-05-09T00:13:27.670Z,99309.88
2024-05-09T00:15:19.437Z,99331.75
2024-05-09T00:17:11.233Z,99329.56
2024-05-09T00:19:03.618Z,99326.13
2024-05-09T00:20:56.055Z,99323.28
2024-05-09T00:22:47.977Z,99321.44
2024-05-09T00:24:39.932Z,99303.59
2024-05-09T00:26:35.680Z,99324.69
2024-05-09T00:28:27.482Z,99327.06
2024-05-09T00:30:27.791Z,99317.34
2024-05-09T00:32:25.053Z,99321.59
2024-05-09T00:34:16.986Z,99319.75
2024-05-09T00:36:09.016Z,99331.97
2024-05-09T00:38:01.000Z,99324.88
2024-05-09T00:39:52.975Z,99306.84
2024-05-09T00:41:44.852Z,99338.09
2024-05-09T00:43:36.680Z,99327.34
2024-05-09T00:45:28.412Z,99331.75
2024-05-09T00:47:20.366Z,99344.56
2024-05-09T00:49:12.474Z,99340.72
2024-05-09T00:51:07.535Z,99346.41
2024-05-09T00:53:00.591Z,99338.50
2024-05-09T00:54:53.234Z,99336.44
2024-05-09T00:56:45.579Z,99329.13
2024-05-09T00:58:41.977Z,99303.38
2024-05-09T01:00:39.069Z,99331.56
2024-05-09T01:02:32.924Z,99314.13
2024-05-09T01:04:24.953Z,99328.31
2024-05-09T01:06:16.723Z,99323.41
2024-05-09T01:08:09.355Z,99303.38
2024-05-09T01:10:01.556Z,99302.16
2024-05-09T01:11:57.998Z,99321.97
2024-05-09T01:13:49.768Z,99320.34
2024-05-09T01:15:41.733Z,99325.78
2024-05-09T01:17:34.174Z,99330.72
2024-05-09T01:19:40.209Z,99328.44
2024-05-09T01:21:32.228Z,99344.06
2024-05-09T01:23:26.900Z,99331.06
2024-05-09T01:25:18.628Z,99325.78
2024-05-09T01:27:10.787Z,99340.00
2024-05-09T01:29:02.600Z,99352.34
2024-05-09T06:57:51.079Z,99492.81
2024-05-09T06:59:23.407Z,99506.00
2024-05-09T07:00:55.359Z,99495.44
2024-05-09T07:02:27.271Z,99495.63
2024-05-09T07:03:59.501Z,99497.63
2024-05-09T07:05:31.429Z,99504.78
2024-05-09T07:07:04.447Z,99493.38
2024-05-09T07:08:36.356Z,99493.59
2024-05-09T07:10:12.272Z,99501.13
2024-05-09T07:11:46.863Z,99493.22
2024-05-09T07:13:18.772Z,99494.44
2024-05-09T07:15:10.751Z,99505.84
2024-05-09T07:17:02.608Z,99511.53
2024-05-09T07:18:54.625Z,99506.84
2024-05-09T07:20:47.017Z,99507.66
2024-05-09T07:22:39.109Z,99508.47
2024-05-09T07:24:30.827Z,99515.78
2024-05-09T07:26:22.618Z,99511.72
2024-05-09T07:28:14.568Z,99514.56
2024-05-09T07:30:07.345Z,99511.28
2024-05-09T07:31:59.183Z,99514.56
2024-05-09T07:33:51.283Z,99525.09
2024-05-09T07:35:43.100Z,99524.88
2024-05-09T07:37:34.898Z,99505.22
2024-05-09T07:39:26.637Z,99513.13
2024-05-09T07:41:18.416Z,99516.97
2024-05-09T07:43:10.166Z,99516.97
2024-05-09T07:45:21.050Z,99534.03
2024-05-09T07:48:28.029Z,99536.88
2024-05-09T07:54:29.803Z,99526.50
2024-05-09T07:56:01.940Z,99513.31
2024-05-09T07:57:33.849Z,99515.97
2024-05-09T07:59:05.693Z,99522.25
2024-05-09T08:00:37.539Z,99534.25
2024-05-09T08:02:09.729Z,99536.91
2024-05-09T08:03:41.753Z,99534.25
2024-05-09T08:05:14.203Z,99532.84
2024-05-09T08:06:46.221Z,99540.56
2024-05-09T08:08:18.105Z,99530.22
2024-05-09T08:09:49.962Z,99537.72
2024-05-09T08:11:21.943Z,99532.84
2024-05-09T08:12:54.129Z,99529.59
2024-05-09T08:14:26.003Z,99536.09
2024-05-09T08:15:58.040Z,99542.78
2024-05-09T08:17:29.897Z,99538.94
2024-05-09T08:19:01.945Z,99546.63
2024-05-09T08:20:35.428Z,99549.88
2024-05-09T08:22:07.799Z,99545.19
2024-05-09T08:23:39.564Z,99550.06
2024-05-09T08:25:13.541Z,99537.28
2024-05-09T08:26:45.814Z,99546.22
2024-05-09T08:28:17.821Z,99558.00
2024-05-09T08:29:49.750Z,99544.41
2024-05-09T08:31:21.621Z,99553.13
2024-05-09T08:32:53.549Z,99552.31
2024-05-09T08:34:45.755Z,99545.22
2024-05-09T08:36:37.616Z,99556.41
2024-05-09T08:38:29.525Z,99547.28
2024-05-09T08:40:30.544Z,99552.97
2024-05-09T08:42:28.255Z,99565.75
2024-05-09T08:44:20.691Z,99555.59
2024-05-09T08:46:12.473Z,99566.97
2024-05-09T08:48:06.478Z,99567.59
2024-05-09T08:49:58.802Z,99565.75
2024-05-09T08:51:50.902Z,99575.09
2024-05-09T08:53:42.739Z,99566.97
2024-05-09T08:55:35.870Z,99557.38
2024-05-09T08:57:29.293Z,99576.06
2024-05-09T08:59:25.137Z,99579.91
2024-05-09T09:01:17.702Z,99562.97
2024-05-09T09:03:10.871Z,99582.84
2024-05-09T09:05:10.311Z,99575.31
2024-05-09T09:07:04.107Z,99573.03
2024-05-09T09:08:59.237Z,99590.06
2024-05-09T09:10:51.020Z,99594.34
2024-05-09T09:12:42.825Z,99585.75
2024-05-09T09:14:34.603Z,99581.44
2024-05-09T09:16:26.613Z,99586.84
2024-05-09T09:18:19.828Z,99578.63
2024-05-09T09:20:16.441Z,99584.47
2024-05-09T09:22:11.204Z,99583.31
2024-05-09T09:24:03.502Z,99570.47
2024-05-09T09:25:55.273Z,99570.66
2024-05-09T09:27:52.926Z,99601.59
2024-05-09T09:29:45.377Z,99587.38
2024-05-09T09:31:39.160Z,99592.16
2024-05-09T09:33:32.187Z,99596.34
2024-05-09T09:35:24.579Z,99596.69
2024-05-09T09:37:30.739Z,99597.72
2024-05-09T09:39:22.908Z,99595.97
2024-05-09T09:41:14.757Z,99599.91
2024-05-09T09:43:09.756Z,99597.66
2024-05-09T09:45:05.223Z,99592.00
2024-05-09T09:46:58.858Z,99603.00
2024-05-09T09:48:55.894Z,99592.81
2024-05-09T09:50:48.548Z,99605.09
2024-05-09T09:52:41.506Z,99606.94
2024-05-09T09:54:33.836Z,99606.19
2024-05-09T09:56:27.710Z,99609.31
2024-05-09T09:58:20.450Z,99610.19
2024-05-09T10:00:20.733Z,99597.75
2024-05-09T10:02:16.092Z,99607.16
2024-05-09T10:04:08.283Z,99602.50
2024-05-09T10:06:00.824Z,99594.38
2024-05-09T10:07:54.576Z,99595.38
2024-05-09T10:09:46.844Z,99587.88
2024-05-09T10:11:45.594Z,99586.94
2024-05-09T10:13:41.235Z,99603.41
2024-05-09T10:15:33.076Z,99600.59
2024-05-09T10:17:25.569Z,99606.16
2024-05-09T10:19:17.662Z,99600.75
2024-05-09T10:21:09.578Z,99598.25
2024-05-09T10:23:07.200Z,99606.72
2024-05-09T10:25:12.856Z,99603.69
2024-05-09T10:27:12.062Z,99587.63
2024-05-09T10:29:03.827Z,99613.19
2024-05-09T10:30:55.809Z,99603.91
2024-05-09T10:32:48.666Z,99596.59
2024-05-09T10:34:41.989Z,99613.63
2024-05-09T10:36:46.579Z,99603.91
2024-05-09T10:38:38.592Z,99606.38
2024-05-09T10:40:36.280Z,99598.06
2024-05-09T10:42:30.230Z,99604.03
2024-05-09T10:44:22.075Z,99622.25
2024-05-09T10:46:13.974Z,99599.88
2024-05-09T10:48:06.078Z,99610.16
2024-05-09T10:49:59.208Z,99607.13
2024-05-09T10:51:51.139Z,99622.38
2024-05-09T10:53:42.950Z,99614.66
2024-05-09T10:55:34.972Z,99603.22
2024-05-09T10:57:27.469Z,99611.06
2024-05-09T10:59:19.275Z,99614.56
2024-05-09T11:01:11.649Z,99623.03
2024-05-09T11:03:03.783Z,99620.78
2024-05-09T11:04:56.994Z,99619.84
2024-05-09T11:06:49.197Z,99620.25
2024-05-09T11:08:41.855Z,99616.63
2024-05-09T11:10:34.679Z,99620.72
2024-05-09T11:12:27.240Z,99606.44
2024-05-09T11:14:18.955Z,99624.91
2024-05-09T11:16:10.807Z,99623.25
2024-05-09T11:18:02.679Z,99619.56
2024-05-09T11:19:58.213Z,99629.88
2024-05-09T11:21:50.041Z,99625.66
2024-05-09T11:23:43.569Z,99629.88
2024-05-09T11:25:35.466Z,99626.59
2024-05-09T11:27:27.235Z,99627.22
2024-05-09T11:29:19.821Z,99633.97
2024-05-09T11:31:11.824Z,99622.44
2024-05-09T11:33:03.890Z,99624.28
2024-05-09T11:34:55.996Z,99627.72
2024-05-09T11:36:47.785Z,99604.91
2024-05-09T11:38:39.637Z,99627.44
2024-05-09T11:42:23.841Z,99623.59
2024-05-09T11:44:15.568Z,99633.19
2024-05-09T11:46:07.326Z,99627.91
2024-05-09T11:47:59.930Z,99632.25
2024-05-09T11:49:51.880Z,99598.31
2024-05-09T11:51:43.739Z,99629.84
2024-05-09T11:53:35.517Z,99612.28
2024-05-09T11:55:28.540Z,99623.09
2024-05-09T11:57:20.513Z,99627.78
2024-05-09T11:59:12.447Z,99639.38
2024-05-09T12:01:04.552Z,99629.69
2024-05-09T12:02:56.480Z,99625.25
2024-05-09T12:04:48.415Z,99633.25
2024-05-09T12:06:40.829Z,99633.03
2024-05-09T12:08:32.707Z,99608.19
2024-05-09T12:10:32.564Z,99622.09
2024-05-09T12:12:26.994Z,99625.13
2024-05-09T12:14:18.723Z,99631.38
2024-05-09T12:16:10.518Z,99624.78
2024-05-09T12:18:03.913Z,99634.59
2024-05-09T12:19:57.043Z,99612.44
2024-05-09T12:21:48.853Z,99617.56
2024-05-09T12:23:40.666Z,99621.88
2024-05-09T12:25:32.488Z,99616.84
2024-05-09T12:27:24.993Z,99602.78
2024-05-09T12:29:16.710Z,99623.13
2024-05-09T12:31:08.454Z,99622.97
2024-05-09T12:33:00.306Z,99619.88
2024-05-09T12:34:52.135Z,99623.97
2024-05-09T12:36:43.928Z,99621.34
2024-05-09T12:38:35.722Z,99620.13
2024-05-09T12:40:35.555Z,99627.44
2024-05-09T12:42:31.351Z,99617.66
2024-05-09T12:44:25.155Z,99606.25
2024-05-09T12:46:16.937Z,99633.50
2024-05-09T12:48:08.977Z,99621.50
2024-05-09T12:50:00.907Z,99624.72
2024-05-09T12:51:52.686Z,99629.41
2024-05-09T12:53:44.669Z,99605.19
2024-05-09T12:55:44.111Z,99611.13
2024-05-09T12:57:40.858Z,99616.81
2024-05-09T12:59:32.641Z,99633.00
2024-05-09T13:01:24.655Z,99629.38
2024-05-09T13:03:16.690Z,99616.81
2024-05-09T13:05:08.814Z,99627.78
2024-05-09T13:07:00.769Z,99634.47
2024-05-09T13:08:52.705Z,99625.91
2024-05-09T13:10:44.940Z,99638.44
2024-05-09T13:12:36.723Z,99636.31
2024-05-09T13:14:28.494Z,99621.44
2024-05-09T13:16:20.461Z,99619.16
2024-05-09T13:18:12.482Z,99606.06
2024-05-09T13:20:05.525Z,99624.75
2024-05-09T13:21:58.793Z,99619.69
2024-05-09T13:23:50.515Z,99613.16
2024-05-09T13:25:42.243Z,99613.97
2024-05-09T13:27:34.148Z,99610.16
2024-05-09T13:29:25.914Z,99618.47
2024-05-09T13:31:17.838Z,99626.84
2024-05-09T13:33:10.680Z,99608.56
2024-05-09T13:35:03.315Z,99620.56
2024-05-09T13:36:55.231Z,99616.94
2024-05-09T13:38:47.332Z,99621.00
2024-05-09T13:40:39.146Z,99600.50
2024-05-09T13:42:31.000Z,99607.22
2024-05-09T13:44:23.691Z,99615.75
2024-05-09T13:46:15.647Z,99602.34
2024-05-09T13:48:07.607Z,99609.25
2024-05-09T13:49:59.539Z,99587.91
2024-05-09T13:51:51.305Z,99611.66
2024-05-09T13:53:43.100Z,99607.63
2024-05-09T13:55:34.929Z,99609.66
2024-05-09T13:57:26.825Z,99612.06
2024-05-09T13:59:18.757Z,99609.25
2024-05-09T14:01:10.722Z,99612.09
2024-05-09T14:03:02.730Z,99612.72
2024-05-09T14:04:54.696Z,99614.75
2024-05-09T14:06:46.727Z,99612.53
2024-05-09T14:08:38.786Z,99613.97
2024-05-09T14:10:31.977Z,99603.59
2024-05-09T14:12:24.656Z,99620.25
2024-05-09T14:14:16.452Z,99618.59
2024-05-09T14:16:08.639Z,99612.03
2024-05-09T14:18:00.568Z,99608.81
2024-05-09T14:19:52.359Z,99617.75
2024-05-09T14:21:44.136Z,99618.94
2024-05-09T14:23:38.264Z,99614.63
2024-05-09T14:25:30.052Z,99608.13
2024-05-09T14:27:21.916Z,99612.56
2024-05-09T14:29:14.057Z,99610.09
2024-05-09T14:31:05.936Z,99599.31
2024-05-09T14:32:57.756Z,99620.03
2024-05-09T14:34:50.660Z,99605.31
2024-05-09T14:36:42.592Z,99624.09
2024-05-09T14:38:34.434Z,99623.53
2024-05-09T14:40:37.021Z,99622.91
2024-05-09T14:42:33.839Z,99619.66
2024-05-09T14:44:25.796Z,99625.34
2024-05-09T14:46:17.656Z,99624.13
2024-05-09T14:48:09.999Z,99617.63
2024-05-09T14:50:02.231Z,99606.94
2024-05-09T14:51:54.613Z,99623.00
2024-05-09T14:53:46.330Z,99612.59
2024-05-09T14:55:38.383Z,99616.47
2024-05-09T14:57:30.417Z,99595.13
2024-05-09T14:59:22.265Z,99607.16
2024-05-09T15:01:14.133Z,99619.69
2024-05-09T15:03:05.993Z,99624.97
2024-05-09T15:04:57.912Z,99627.34
2024-05-09T15:06:49.854Z,99621.84
2024-05-09T15:08:41.648Z,99616.34
2024-05-09T15:10:35.909Z,99608.38
2024-05-09T15:12:28.946Z,99630.75
2024-05-09T15:14:20.681Z,99607.94
2024-05-09T15:16:12.651Z,99594.69
2024-05-09T15:18:05.293Z,99613.44
2024-05-09T15:19:57.509Z,99613.19
2024-05-09T15:22:08.389Z,99618.09
2024-05-09T15:24:00.315Z,99604.88
2024-05-09T15:25:55.854Z,99611.06
2024-05-09T15:27:47.949Z,99620.22
2024-05-09T15:29:39.717Z,99622.66
2024-05-09T15:31:31.614Z,99614.38
2024-05-09T15:33:23.623Z,99598.06
2024-05-09T15:35:15.955Z,99618.41
2024-05-09T15:37:07.858Z,99621.44
2024-05-09T15:38:59.620Z,99615.97
2024-05-09T15:40:51.572Z,99615.00
2024-05-09T15:42:43.527Z,99621.09
2024-05-09T15:44:35.321Z,99618.66
2024-05-09T15:46:27.560Z,99615.00
2024-05-09T15:48:19.640Z,99621.84
2024-05-09T15:50:20.252Z,99610.81
2024-05-09T15:52:19.668Z,99605.56
2024-05-09T15:54:11.464Z,99617.72
2024-05-09T15:56:03.335Z,99618.78
2024-05-09T15:57:55.148Z,99622.44
2024-05-09T15:59:47.119Z,99620.78
2024-05-09T16:01:38.899Z,99611.66
2024-05-09T16:03:31.571Z,99621.59
2024-05-09T16:05:23.732Z,99630.75
2024-05-09T16:07:15.611Z,99619.78
2024-05-09T16:09:07.365Z,99627.28
2024-05-09T16:11:00.509Z,99611.44
2024-05-09T16:12:52.482Z,99622.66
2024-05-09T16:14:44.214Z,99629.13
2024-05-09T16:16:36.336Z,99624.25
2024-05-09T16:18:28.387Z,99640.28
2024-05-09T16:20:33.231Z,99641.47
2024-05-09T16:22:30.447Z,99625.75
2024-05-09T16:24:22.159Z,99634.25
2024-05-09T16:26:14.074Z,99635.66
2024-05-09T16:28:09.078Z,99636.28
2024-05-09T16:30:04.121Z,99638.72
2024-05-09T16:31:58.676Z,99626.66
2024-05-09T16:33:50.661Z,99641.84
2024-05-09T16:35:42.479Z,99638.06
2024-05-09T16:37:34.333Z,99642.09
2024-05-09T16:39:26.189Z,99651.34
2024-05-09T16:41:17.934Z,99650.34
2024-05-09T16:43:10.456Z,99649.28
2024-05-09T16:45:02.620Z,99638.50
2024-05-09T16:46:54.555Z,99636.22
2024-05-09T16:48:46.424Z,99658.78
2024-05-09T16:50:38.218Z,99659.53
2024-05-09T16:52:29.938Z,99665.44
2024-05-09T16:54:21.919Z,99661.81
2024-05-09T16:56:13.805Z,99655.22
2024-05-09T16:58:05.756Z,99647.91
2024-05-09T16:59:57.577Z,99666.63
2024-05-09T17:01:49.400Z,99665.63
2024-05-09T17:03:42.827Z,99663.34
2024-05-09T17:05:35.381Z,99634.22
2024-05-09T17:07:27.602Z,99669.91
2024-05-09T17:09:20.157Z,99656.78
2024-05-09T17:11:12.378Z,99675.44
2024-05-09T17:13:05.289Z,99675.06
2024-05-09T17:14:58.678Z,99665.56
2024-05-09T17:16:50.526Z,99671.81
2024-05-09T17:18:42.434Z,99671.00
2024-05-09T17:20:36.699Z,99652.88
2024-05-09T17:22:29.383Z,99656.16
2024-05-09T17:24:21.168Z,99656.56
2024-05-09T17:26:13.030Z,99678.72
2024-05-09T17:28:05.030Z,99668.28
2024-05-09T17:29:57.257Z,99643.22
2024-05-09T17:31:48.992Z,99680.81
2024-05-09T17:33:40.876Z,99680.25
2024-05-09T17:35:33.061Z,99689.97
2024-05-09T17:37:24.979Z,99681.53
2024-05-09T17:39:16.796Z,99673.72
2024-05-09T17:41:08.673Z,99682.09
2024-05-09T17:43:00.571Z,99690.06
2024-05-09T17:44:52.414Z,99687.22
2024-05-09T17:46:44.447Z,99675.94
2024-05-09T17:48:37.529Z,99700.09
2024-05-09T17:52:24.387Z,99695.31
2024-05-09T17:54:16.133Z,99678.09
2024-05-09T17:56:07.963Z,99685.97
2024-05-09T17:57:59.954Z,99685.22
2024-05-09T17:59:51.799Z,99691.94
2024-05-09T18:01:43.600Z,99703.91
2024-05-09T18:03:35.705Z,99693.38
2024-05-09T18:05:27.732Z,99688.06
2024-05-09T18:07:19.798Z,99697.81
2024-05-09T18:09:11.653Z,99700.25
2024-05-09T18:11:03.484Z,99701.28
2024-05-09T18:12:55.585Z,99692.84
2024-05-09T18:14:48.084Z,99710.53
2024-05-09T18:16:40.575Z,99714.63
2024-05-09T18:18:33.038Z,99715.00
2024-05-09T18:20:36.071Z,99684.84
2024-05-09T18:22:33.394Z,99709.38
2024-05-09T18:24:25.476Z,99721.16
2024-05-09T18:26:17.651Z,99720.78
2024-05-09T18:28:09.598Z,99715.72
2024-05-09T18:30:01.425Z,99727.66
2024-05-09T18:31:53.408Z,99728.94
2024-05-09T18:33:45.554Z,99737.47
2024-05-09T18:35:37.425Z,99722.69
2024-05-09T18:37:29.350Z,99707.00
2024-05-09T18:39:21.136Z,99729.66
2024-05-09T18:41:13.813Z,99741.63
2024-05-09T18:43:07.557Z,99741.63
2024-05-09T18:45:00.622Z,99735.09
2024-05-09T18:46:52.440Z,99739.56
2024-05-09T18:48:44.437Z,99748.22
2024-05-09T18:50:39.195Z,99747.59
2024-05-09T18:52:32.954Z,99745.16
2024-05-09T18:54:24.871Z,99752.97
2024-05-09T18:56:16.705Z,99749.81
2024-05-09T18:58:08.602Z,99752.72
2024-05-09T19:00:00.494Z,99734.59
2024-05-09T19:01:52.397Z,99766.16
2024-05-09T19:03:44.690Z,99742.38
2024-05-09T19:05:36.882Z,99759.06
2024-05-09T19:07:28.861Z,99757.06
2024-05-09T19:09:20.611Z,99762.06
2024-05-09T19:11:12.501Z,99755.66
2024-05-09T19:13:08.823Z,99761.88
2024-05-09T19:15:03.789Z,99759.81
2024-05-09T19:16:55.696Z,99762.25
2024-05-09T19:18:47.619Z,99766.44
2024-05-09T19:20:39.787Z,99717.22
2024-05-09T19:22:32.048Z,99762.53
2024-05-09T19:24:24.019Z,99769.06
2024-05-09T19:26:15.747Z,99770.13
2024-05-09T19:28:07.802Z,99753.91
2024-05-09T19:29:59.593Z,99760.78
2024-05-09T19:31:51.461Z,99777.47
2024-05-09T19:33:43.612Z,99775.03
2024-05-09T19:35:35.508Z,99776.84
2024-05-09T19:37:27.267Z,99775.47
2024-05-09T19:39:19.192Z,99749.75
2024-05-09T19:41:10.946Z,99765.06
2024-05-09T19:43:03.598Z,99773.38
2024-05-09T19:44:55.932Z,99778.84
2024-05-09T19:46:47.814Z,99759.91
2024-05-09T19:48:40.687Z,99775.41
2024-05-09T19:50:40.636Z,99774.28
2024-05-09T19:52:35.533Z,99780.66
2024-05-09T19:54:27.482Z,99786.84
2024-05-09T19:56:19.388Z,99776.66
2024-05-09T19:58:11.843Z,99759.97
2024-05-09T20:00:05.898Z,99758.38
2024-05-09T20:01:58.095Z,99765.16
2024-05-09T20:03:50.220Z,99779.19
2024-05-09T20:05:42.297Z,99780.47
2024-05-09T20:07:36.315Z,99786.00
2024-05-09T20:09:28.210Z,99778.94
2024-05-09T20:11:20.029Z,99756.25
2024-05-09T20:13:11.917Z,99771.97
2024-05-09T20:15:03.691Z,99782.72
2024-05-09T20:16:55.427Z,99789.63
2024-05-09T20:18:47.766Z,99770.31
2024-05-09T20:20:42.637Z,99782.09
2024-05-09T20:22:35.944Z,99759.91
2024-05-09T20:24:27.943Z,99780.94
2024-05-09T20:26:19.720Z,99770.75
2024-05-09T20:28:11.608Z,99785.00
2024-05-09T20:30:07.978Z,99782.47
2024-05-09T20:32:03.443Z,99772.66
2024-05-09T20:33:55.339Z,99784.09
2024-05-09T20:35:47.239Z,99769.69
2024-05-09T20:37:39.217Z,99779.47
2024-05-09T20:39:30.939Z,99778.09
2024-05-09T20:41:22.742Z,99757.91
2024-05-09T20:43:14.495Z,99783.38
2024-05-09T20:45:06.313Z,99775.47
2024-05-09T20:46:59.459Z,99776.09
2024-05-09T20:48:51.317Z,99774.13
2024-05-09T20:50:43.230Z,99779.41
2024-05-09T20:52:35.225Z,99778.94
2024-05-09T20:54:26.939Z,99774.41
2024-05-09T20:56:18.659Z,99777.66
2024-05-09T20:58:10.802Z,99777.22
2024-05-09T21:00:03.357Z,99776.41
2024-05-09T21:01:56.252Z,99779.19
2024-05-09T21:03:48.334Z,99783.81
2024-05-09T21:05:40.819Z,99766.34
2024-05-09T21:07:32.899Z,99783.66
2024-05-09T21:09:24.743Z,99768.66
2024-05-09T21:11:16.467Z,99770.31
2024-05-09T21:13:08.330Z,99772.59
2024-05-09T21:15:00.233Z,99777.31
2024-05-09T21:16:52.123Z,99783.19
2024-05-09T21:18:44.004Z,99779.75
2024-05-09T21:20:35.835Z,99782.19
2024-05-09T21:22:27.620Z,99778.56
2024-05-09T21:24:19.329Z,99782.38
2024-05-09T21:26:11.101Z,99768.31
2024-05-09T21:28:02.962Z,99772.22
2024-05-09T21:29:54.743Z,99778.09
2024-05-09T21:31:46.618Z,99781.94
2024-05-09T21:33:38.657Z,99778.47
2024-05-09T21:35:33.011Z,99770.31
2024-05-09T21:37:25.038Z,99800.59
2024-05-09T21:39:16.853Z,99797.72
2024-05-09T21:41:08.598Z,99789.72
2024-05-09T21:43:00.634Z,99791.34
2024-05-09T21:44:52.659Z,99769.78
2024-05-09T21:46:44.415Z,99783.47
2024-05-09T21:48:36.508Z,99782.38
2024-05-09T21:50:36.522Z,99788.28
2024-05-09T21:52:32.266Z,99788.00
2024-05-09T21:54:24.036Z,99795.09
2024-05-09T21:56:15.875Z,99786.19
2024-05-09T21:58:07.721Z,99788.38
2024-05-09T21:59:59.532Z,99776.31
2024-05-09T22:01:51.440Z,99794.25
2024-05-09T22:03:43.442Z,99794.25
2024-05-09T22:05:35.391Z,99800.34
2024-05-09T22:07:27.330Z,99800.16
2024-05-09T22:09:19.039Z,99798.78
2024-05-09T22:11:10.899Z,99791.81
2024-05-09T22:13:02.780Z,99781.63
2024-05-09T22:14:54.543Z,99796.31
2024-05-09T22:16:46.578Z,99790.44
2024-05-09T22:18:37.196Z,99800.84
2024-05-09T22:20:36.443Z,99786.44
2024-05-09T22:22:30.819Z,99785.63
2024-05-09T22:24:22.550Z,99794.25
2024-05-09T22:26:14.263Z,99780.91
2024-05-09T22:28:06.356Z,99801.47
2024-05-09T22:29:58.687Z,99796.22
2024-05-09T22:31:50.450Z,99784.00
2024-05-09T22:33:44.705Z,99776.75
2024-05-09T22:35:37.972Z,99795.41
2024-05-09T22:37:29.687Z,99793.88
2024-05-09T22:39:21.493Z,99794.63
2024-05-09T22:41:13.341Z,99798.25
2024-05-09T22:43:05.287Z,99790.91
2024-05-09T22:44:57.228Z,99780.47
2024-05-09T22:46:48.953Z,99791.72
2024-05-09T22:48:40.897Z,99772.69
2024-05-09T22:50:33.651Z,99781.56
2024-05-09T22:52:25.911Z,99770.50
2024-05-09T22:53:57.711Z,99783.91
2024-05-09T22:55:30.008Z,99773.75
2024-05-09T22:57:01.844Z,99783.56
2024-05-09T22:58:33.843Z,99782.94
2024-05-09T23:00:07.962Z,99777.94
2024-05-09T23:01:41.849Z,99780.94
2024-05-09T23:03:16.616Z,99775.41
2024-05-09T23:04:48.649Z,99765.16
2024-05-09T23:06:20.512Z,99773.41
2024-05-09T23:07:52.445Z,99774.78
2024-05-09T23:09:24.250Z,99773.22
2024-05-09T23:10:56.352Z,99770.50
2024-05-09T23:12:28.139Z,99762.06
2024-05-09T23:14:00.101Z,99759.06
2024-05-09T23:15:31.919Z,99761.53
2024-05-09T23:17:04.071Z,99762.34
2024-05-09T23:18:36.034Z,99767.22
2024-05-09T23:20:11.543Z,99772.13
2024-05-09T23:21:43.760Z,99755.44
2024-05-09T23:23:15.560Z,99767.22
2024-05-09T23:24:48.025Z,99775.13
2024-05-09T23:26:39.905Z,99765.25
2024-05-09T23:28:32.002Z,99773.13
2024-05-09T23:30:33.560Z,99743.50
2024-05-09T23:32:29.967Z,99754.91
2024-05-09T23:34:21.899Z,99768.41
2024-05-09T23:36:13.892Z,99769.50
2024-05-09T23:38:06.274Z,99755.09
2024-05-09T23:39:58.036Z,99759.28
2024-05-09T23:41:49.810Z,99763.53
2024-05-09T23:43:41.715Z,99769.94
2024-05-09T23:45:33.897Z,99765.88
2024-05-09T23:47:26.029Z,99771.13
2024-05-09T23:49:17.994Z,99761.34
2024-05-09T23:51:09.705Z,99763.88
2024-05-09T23:53:01.503Z,99752.44
2024-05-09T23:54:53.944Z,99733.72
2024-05-09T23:56:45.675Z,99751.63
2024-05-09T23:58:37.451Z,99759.16
